createdAt,value
2018-09-17T00:00:05.094Z,81.17
2018-09-17T00:02:33.286Z,82.08
2018-09-17T00:05:01.381Z,81.94
2018-09-17T00:07:29.308Z,82.13
2018-09-17T00:09:57.733Z,82.37
2018-09-17T00:12:25.732Z,81.99
2018-09-17T00:14:53.873Z,82.27
2018-09-17T00:17:21.965Z,81.44
2018-09-17T00:19:50.037Z,81.15
2018-09-17T00:22:17.957Z,81.38
2018-09-17T00:24:46.016Z,81.18
2018-09-17T00:27:15.685Z,80.96
2018-09-17T00:29:44.921Z,80.08
2018-09-17T00:32:13.285Z,79.43
2018-09-17T00:34:41.337Z,80.56
2018-09-17T00:37:09.343Z,81.66
2018-09-17T00:39:37.673Z,82.05
2018-09-17T00:42:05.692Z,81.93
2018-09-17T00:44:34.082Z,81.85
2018-09-17T00:47:03.147Z,82.42
2018-09-17T00:49:31.270Z,82.58
2018-09-17T00:51:59.225Z,82.62
2018-09-17T00:54:28.426Z,81.85
2018-09-17T00:56:56.529Z,81.87
2018-09-17T00:59:24.935Z,82.08
2018-09-17T01:01:52.891Z,81.17
2018-09-17T01:04:20.881Z,81.12
2018-09-17T01:06:48.929Z,81.97
2018-09-17T01:09:22.381Z,82.05
2018-09-17T01:11:50.476Z,81.71
2018-09-17T01:14:18.488Z,82.10
2018-09-17T01:16:46.596Z,81.58
2018-09-17T01:19:14.770Z,82.02
2018-09-17T01:21:42.927Z,82.04
2018-09-17T01:24:10.900Z,82.04
2018-09-17T01:26:39.040Z,82.33
2018-09-17T01:29:07.025Z,82.19
2018-09-17T01:31:35.390Z,82.62
2018-09-17T01:34:03.369Z,83.24
2018-09-17T01:36:31.500Z,82.19
2018-09-17T01:38:59.648Z,83.04
2018-09-17T01:41:27.913Z,83.38
2018-09-17T01:43:55.848Z,82.98
2018-09-17T01:46:23.937Z,83.46
2018-09-17T01:48:52.679Z,83.16
2018-09-17T01:51:20.828Z,83.77
2018-09-17T01:53:48.842Z,83.40
2018-09-17T01:56:16.904Z,83.22
2018-09-17T01:58:44.960Z,82.84
2018-09-17T02:01:13.089Z,83.76
2018-09-17T02:03:41.175Z,83.86
2018-09-17T02:06:09.521Z,82.68
2018-09-17T02:08:37.717Z,82.50
2018-09-17T02:11:05.765Z,82.50
2018-09-17T02:13:33.988Z,81.43
2018-09-17T02:16:02.104Z,80.10
2018-09-17T02:18:30.085Z,80.54
2018-09-17T02:20:58.132Z,81.49
2018-09-17T02:23:26.108Z,81.84
2018-09-17T02:25:54.125Z,81.99
2018-09-17T02:28:22.175Z,81.92
2018-09-17T02:30:50.720Z,81.31
2018-09-17T02:33:18.651Z,81.70
2018-09-17T02:35:46.929Z,81.91
2018-09-17T02:38:14.865Z,82.28
2018-09-17T02:40:43.159Z,83.10
2018-09-17T02:43:11.171Z,83.43
2018-09-17T02:45:39.909Z,83.82
2018-09-17T02:48:07.936Z,83.65
2018-09-17T02:50:36.232Z,83.39
2018-09-17T02:53:04.353Z,83.87
2018-09-17T02:55:32.350Z,83.55
2018-09-17T02:58:00.525Z,83.45
2018-09-17T03:00:28.444Z,83.47
2018-09-17T03:02:56.533Z,83.17
2018-09-17T03:05:24.573Z,82.88
2018-09-17T03:07:52.810Z,82.86
2018-09-17T03:10:20.781Z,82.53
2018-09-17T03:12:51.953Z,83.67
2018-09-17T03:15:31.040Z,84.17
2018-09-17T03:17:59.054Z,84.32
2018-09-17T03:20:27.344Z,83.99
2018-09-17T03:22:55.445Z,83.83
2018-09-17T03:25:23.490Z,83.83
2018-09-17T03:27:51.471Z,83.36
2018-09-17T03:30:19.715Z,82.92
2018-09-17T03:32:47.833Z,82.32
2018-09-17T03:35:16.664Z,81.42
2018-09-17T03:37:45.001Z,82.03
2018-09-17T03:40:12.938Z,82.14
2018-09-17T03:42:40.945Z,81.70
2018-09-17T03:45:09.321Z,82.35
2018-09-17T03:47:37.376Z,82.69
2018-09-17T03:50:06.648Z,82.54
2018-09-17T03:52:34.696Z,82.85
2018-09-17T03:55:02.624Z,83.16
2018-09-17T03:57:30.705Z,82.91
2018-09-17T03:59:58.666Z,83.56
2018-09-17T04:02:26.805Z,83.43
2018-09-17T04:04:55.174Z,82.62
2018-09-17T04:07:23.288Z,82.41
2018-09-17T04:09:51.393Z,82.03
2018-09-17T04:12:19.518Z,82.25
2018-09-17T04:14:47.538Z,82.23
2018-09-17T04:17:15.520Z,82.06
2018-09-17T04:19:43.490Z,82.00
2018-09-17T04:22:11.550Z,81.72
2018-09-17T04:24:39.592Z,81.39
2018-09-17T04:27:07.835Z,81.43
2018-09-17T04:29:35.983Z,80.39
2018-09-17T04:32:04.160Z,81.27
2018-09-17T04:34:32.383Z,81.53
2018-09-17T04:37:00.818Z,82.11
2018-09-17T04:39:29.997Z,83.04
2018-09-17T04:41:58.130Z,83.41
2018-09-17T04:44:26.312Z,82.92
2018-09-17T04:46:54.508Z,82.51
2018-09-17T04:49:22.689Z,82.29
2018-09-17T04:51:50.864Z,81.99
2018-09-17T04:54:19.034Z,81.86
2018-09-17T04:56:47.427Z,80.61
2018-09-17T05:02:08.583Z,81.06
2018-09-17T05:05:09.922Z,81.64
2018-09-17T05:13:23.280Z,81.83
2018-09-17T05:15:51.327Z,81.68
2018-09-17T05:18:19.642Z,81.01
2018-09-17T05:20:47.823Z,79.08
2018-09-17T05:23:17.391Z,77.45
2018-09-17T05:25:45.670Z,74.60
2018-09-17T05:28:14.731Z,70.82
2018-09-17T05:30:43.006Z,69.25
2018-09-17T05:33:11.281Z,68.73
2018-09-17T05:35:39.462Z,68.49
2018-09-17T05:38:07.813Z,69.31
2018-09-17T05:40:35.993Z,69.64
2018-09-17T05:43:04.216Z,69.21
2018-09-17T05:45:32.363Z,70.97
2018-09-17T05:48:00.628Z,71.23
2018-09-17T05:50:28.825Z,71.09
2018-09-17T05:52:57.069Z,71.89
2018-09-17T05:55:25.315Z,71.34
2018-09-17T05:57:53.439Z,71.55
2018-09-17T06:00:21.599Z,70.84
2018-09-17T06:02:49.778Z,69.57
2018-09-17T06:05:19.231Z,69.01
2018-09-17T06:07:47.502Z,68.16
2018-09-17T06:10:17.146Z,68.87
2018-09-17T06:12:47.495Z,66.74
2018-09-17T06:15:16.396Z,64.38
2018-09-17T06:17:44.666Z,62.18
2018-09-17T06:20:12.889Z,59.82
2018-09-17T06:22:41.117Z,60.29
2018-09-17T06:25:09.600Z,59.86
2018-09-17T06:27:37.720Z,60.51
2018-09-17T06:30:06.550Z,60.03
2018-09-17T06:32:34.812Z,60.39
2018-09-17T06:35:03.379Z,59.53
2018-09-17T06:37:31.574Z,60.78
2018-09-17T06:39:59.903Z,60.02
2018-09-17T06:42:28.093Z,58.45
2018-09-17T06:44:56.228Z,57.43
2018-09-17T06:47:24.422Z,56.85
2018-09-17T06:49:52.689Z,56.38
2018-09-17T06:52:20.883Z,56.88
2018-09-17T06:54:49.055Z,56.09
2018-09-17T06:57:17.231Z,56.17
2018-09-17T06:59:45.576Z,56.36
2018-09-17T07:02:13.725Z,56.66
2018-09-17T07:04:41.945Z,55.21
2018-09-17T07:07:10.066Z,53.03
2018-09-17T07:09:38.266Z,51.51
2018-09-17T07:12:06.487Z,52.44
2018-09-17T07:14:34.649Z,52.33
2018-09-17T07:17:02.866Z,51.45
2018-09-17T07:19:31.155Z,51.89
2018-09-17T07:21:59.305Z,49.06
2018-09-17T07:24:27.523Z,46.18
2018-09-17T07:26:55.648Z,45.44
2018-09-17T07:29:24.355Z,44.62
2018-09-17T07:31:52.582Z,42.90
2018-09-17T07:34:21.385Z,42.65
2018-09-17T07:36:49.550Z,41.75
2018-09-17T07:39:17.828Z,41.47
2018-09-17T07:41:46.099Z,40.15
2018-09-17T07:44:14.343Z,40.03
2018-09-17T07:46:42.514Z,37.15
2018-09-17T07:49:10.798Z,38.25
2018-09-17T07:51:39.057Z,37.60
2018-09-17T07:54:07.176Z,37.57
2018-09-17T07:56:35.412Z,36.48
2018-09-17T07:59:03.673Z,36.00
2018-09-17T08:01:32.280Z,34.70
2018-09-17T08:04:00.440Z,35.33
2018-09-17T08:06:28.720Z,35.32
2018-09-17T08:08:56.960Z,35.87
2018-09-17T08:11:25.903Z,35.94
2018-09-17T08:13:54.062Z,36.50
2018-09-17T08:16:22.342Z,35.60
2018-09-17T08:18:50.469Z,37.86
2018-09-17T08:21:18.782Z,40.06
2018-09-17T08:23:46.987Z,41.89
2018-09-17T08:26:15.241Z,41.71
2018-09-17T08:28:43.437Z,39.30
2018-09-17T08:31:11.650Z,37.26
2018-09-17T08:33:39.943Z,37.77
2018-09-17T08:36:08.243Z,35.80
2018-09-17T08:38:37.071Z,36.62
2018-09-17T08:41:05.372Z,35.92
2018-09-17T08:43:33.530Z,34.85
2018-09-17T08:46:01.849Z,34.84
2018-09-17T08:48:30.300Z,32.29
2018-09-17T08:50:58.468Z,32.60
2018-09-17T08:53:26.568Z,31.28
2018-09-17T08:55:59.749Z,34.46
2018-09-17T08:58:34.008Z,33.95
2018-09-17T09:01:07.904Z,37.57
2018-09-17T09:03:38.256Z,37.55
2018-09-17T09:06:12.096Z,38.01
2018-09-17T09:08:41.144Z,39.02
2018-09-17T09:12:13.843Z,39.85
2018-09-17T09:14:42.063Z,40.89
2018-09-17T09:17:11.144Z,40.37
2018-09-17T09:19:39.770Z,41.77
2018-09-17T09:22:08.348Z,40.84
2018-09-17T09:24:36.619Z,41.86
2018-09-17T09:27:04.995Z,42.48
2018-09-17T09:29:33.246Z,42.65
2018-09-17T09:32:01.569Z,43.29
2018-09-17T09:34:30.490Z,43.28
2018-09-17T09:36:58.730Z,43.11
2018-09-17T09:39:26.937Z,42.97
2018-09-17T09:41:55.248Z,43.40
2018-09-17T09:44:24.560Z,43.05
2018-09-17T09:46:52.900Z,42.05
2018-09-17T09:49:21.067Z,41.78
2018-09-17T09:51:49.286Z,42.00
2018-09-17T09:54:17.486Z,42.79
2018-09-17T09:56:45.767Z,43.38
2018-09-17T09:59:13.983Z,42.29
2018-09-17T10:01:47.840Z,43.25
2018-09-17T10:04:22.039Z,42.86
2018-09-17T10:06:50.888Z,42.43
2018-09-17T10:09:24.685Z,41.96
2018-09-17T10:11:58.555Z,42.25
2018-09-17T10:14:32.447Z,42.48
2018-09-17T10:17:06.363Z,41.09
2018-09-17T10:19:34.652Z,41.93
2018-09-17T10:22:03.047Z,40.85
2018-09-17T10:24:31.827Z,42.05
2018-09-17T10:26:59.981Z,41.79
2018-09-17T10:29:28.235Z,41.90
2018-09-17T10:31:56.376Z,41.77
2018-09-17T10:34:24.785Z,42.67
2018-09-17T10:36:53.143Z,42.54
2018-09-17T10:39:21.583Z,41.87
2018-09-17T10:41:49.723Z,41.07
2018-09-17T10:44:17.931Z,41.95
2018-09-17T10:46:46.174Z,42.16
2018-09-17T10:49:14.423Z,42.28
2018-09-17T10:51:42.643Z,41.06
2018-09-17T10:54:10.863Z,41.10
2018-09-17T10:56:39.052Z,40.82
2018-09-17T10:59:07.247Z,40.50
2018-09-17T11:01:35.623Z,38.52
2018-09-17T11:04:03.851Z,37.44
2018-09-17T11:06:32.243Z,36.58
2018-09-17T11:09:00.414Z,35.74
2018-09-17T11:11:28.595Z,35.87
2018-09-17T11:13:57.115Z,36.48
2018-09-17T11:16:26.311Z,35.85
2018-09-17T11:18:54.742Z,37.57
2018-09-17T11:21:23.026Z,37.84
2018-09-17T11:23:51.384Z,38.52
2018-09-17T11:26:19.497Z,39.86
2018-09-17T11:28:47.763Z,39.56
2018-09-17T11:31:15.967Z,39.75
2018-09-17T11:33:44.495Z,40.30
2018-09-17T11:36:12.723Z,40.81
2018-09-17T11:38:41.026Z,40.08
2018-09-17T11:41:09.306Z,39.92
2018-09-17T11:43:37.551Z,41.72
2018-09-17T11:46:05.912Z,41.67
2018-09-17T11:48:34.455Z,41.71
2018-09-17T11:51:03.206Z,41.55
2018-09-17T11:53:31.858Z,41.52
2018-09-17T11:56:00.084Z,40.23
2018-09-17T11:58:28.371Z,41.14
2018-09-17T12:01:02.072Z,41.22
2018-09-17T12:03:35.703Z,42.02
2018-09-17T12:06:05.030Z,41.15
2018-09-17T12:08:33.663Z,41.20
2018-09-17T12:11:02.143Z,41.13
2018-09-17T12:13:30.223Z,41.34
2018-09-17T12:15:58.523Z,42.05
2018-09-17T12:18:27.103Z,40.82
2018-09-17T12:23:59.192Z,39.98
2018-09-17T12:26:53.264Z,39.79
2018-09-17T12:29:21.543Z,39.74
2018-09-17T12:31:50.063Z,39.42
2018-09-17T12:34:18.404Z,39.72
2018-09-17T12:36:57.487Z,39.41
2018-09-17T12:39:58.087Z,39.87
2018-09-17T12:42:28.183Z,39.15
2018-09-17T12:44:56.495Z,40.00
2018-09-17T12:47:24.964Z,38.54
2018-09-17T12:49:53.871Z,38.72
2018-09-17T12:52:22.291Z,39.15
2018-09-17T12:54:50.632Z,38.56
2018-09-17T12:57:18.927Z,38.74
2018-09-17T12:59:47.231Z,39.58
2018-09-17T13:02:15.905Z,38.63
2018-09-17T13:04:44.293Z,38.36
2018-09-17T13:07:12.672Z,39.95
2018-09-17T13:09:41.044Z,38.84
2018-09-17T13:12:09.427Z,39.71
2018-09-17T13:14:38.648Z,39.18
2018-09-17T13:17:07.065Z,38.37
2018-09-17T13:19:35.264Z,39.38
2018-09-17T13:22:03.504Z,38.73
2018-09-17T13:24:31.784Z,38.88
2018-09-17T13:27:00.164Z,37.94
2018-09-17T13:29:28.523Z,37.94
2018-09-17T13:31:57.011Z,38.59
2018-09-17T13:34:25.252Z,37.84
2018-09-17T13:36:53.727Z,37.24
2018-09-17T13:39:23.132Z,36.53
2018-09-17T13:41:51.563Z,36.85
2018-09-17T13:44:19.893Z,36.80
2018-09-17T13:46:48.212Z,37.40
2018-09-17T13:49:23.182Z,36.77
2018-09-17T13:51:51.581Z,37.08
2018-09-17T13:54:19.912Z,36.76
2018-09-17T13:56:48.277Z,37.00
2018-09-17T13:59:16.485Z,36.76
2018-09-17T14:01:44.879Z,37.28
2018-09-17T14:04:13.209Z,37.43
2018-09-17T14:06:43.033Z,37.01
2018-09-17T14:09:12.588Z,37.71
2018-09-17T14:11:41.871Z,35.25
2018-09-17T14:14:10.274Z,36.00
2018-09-17T14:16:38.525Z,35.96
2018-09-17T14:19:06.823Z,35.89
2018-09-17T14:21:34.939Z,35.09
2018-09-17T14:24:03.143Z,35.95
2018-09-17T14:26:31.444Z,37.03
2018-09-17T14:28:59.569Z,36.53
2018-09-17T14:31:33.197Z,36.35
2018-09-17T14:34:01.392Z,36.35
2018-09-17T14:36:29.583Z,35.85
2018-09-17T14:38:57.729Z,35.64
2018-09-17T14:41:26.012Z,36.45
2018-09-17T14:43:54.315Z,35.35
2018-09-17T14:46:22.472Z,34.23
2018-09-17T14:48:50.600Z,35.13
2018-09-17T14:51:18.931Z,36.13
2018-09-17T14:53:47.032Z,34.76
2018-09-17T14:56:15.163Z,34.66
2018-09-17T14:58:44.063Z,35.40
2018-09-17T15:01:12.169Z,36.16
2018-09-17T15:03:40.403Z,35.95
2018-09-17T15:06:08.543Z,35.45
2018-09-17T15:08:36.900Z,35.78
2018-09-17T15:11:05.016Z,36.07
2018-09-17T15:13:33.151Z,36.19
2018-09-17T15:16:01.391Z,36.92
2018-09-17T15:18:29.588Z,35.78
2018-09-17T15:20:57.743Z,37.23
2018-09-17T15:23:25.845Z,37.31
2018-09-17T15:25:54.064Z,38.12
2018-09-17T15:28:24.795Z,37.78
2018-09-17T15:30:54.316Z,37.91
2018-09-17T15:33:22.552Z,37.58
2018-09-17T15:35:50.761Z,37.14
2018-09-17T15:38:19.079Z,38.38
2018-09-17T15:40:47.727Z,37.90
2018-09-17T15:43:15.880Z,38.19
2018-09-17T15:45:43.991Z,37.99
2018-09-17T15:48:12.763Z,38.62
2018-09-17T15:50:40.981Z,38.88
2018-09-17T15:53:09.271Z,39.26
2018-09-17T15:55:37.423Z,40.11
2018-09-17T15:58:05.923Z,40.82
2018-09-17T16:00:34.132Z,40.57
2018-09-17T16:03:02.507Z,41.19
2018-09-17T16:05:30.903Z,44.54
2018-09-17T16:07:59.012Z,43.88
2018-09-17T16:10:27.352Z,45.06
2018-09-17T16:12:55.531Z,45.83
2018-09-17T16:15:23.712Z,46.84
2018-09-17T16:17:51.904Z,47.90
2018-09-17T16:20:19.971Z,48.44
2018-09-17T16:22:48.524Z,48.23
2018-09-17T16:25:16.851Z,49.33
2018-09-17T16:27:45.453Z,49.67
2018-09-17T16:30:13.752Z,49.52
2018-09-17T16:32:41.985Z,49.38
2018-09-17T16:35:10.357Z,51.01
2018-09-17T16:37:38.639Z,50.00
2018-09-17T16:40:07.321Z,50.51
2018-09-17T16:42:35.403Z,50.57
2018-09-17T16:45:03.527Z,50.83
2018-09-17T16:47:31.563Z,51.18
2018-09-17T16:49:59.753Z,52.26
2018-09-17T16:52:27.905Z,53.68
2018-09-17T16:54:56.143Z,51.72
2018-09-17T16:57:24.264Z,52.23
2018-09-17T16:59:52.595Z,53.41
2018-09-17T17:02:20.924Z,54.04
2018-09-17T17:04:49.127Z,53.33
2018-09-17T17:07:17.119Z,54.42
2018-09-17T17:09:45.199Z,54.55
2018-09-17T17:12:13.265Z,55.46
2018-09-17T17:14:41.415Z,55.16
2018-09-17T17:17:09.705Z,55.37
2018-09-17T17:19:37.972Z,55.80
2018-09-17T17:22:06.009Z,55.73
2018-09-17T17:24:34.864Z,56.12
2018-09-17T17:27:03.328Z,57.03
2018-09-17T17:29:32.096Z,57.65
2018-09-17T17:32:00.821Z,58.29
2018-09-17T17:34:29.540Z,57.58
2018-09-17T17:36:58.414Z,58.17
2018-09-17T17:39:27.098Z,58.37
2018-09-17T17:41:57.022Z,58.29
2018-09-17T17:44:29.803Z,59.14
2018-09-17T17:47:05.671Z,59.15
2018-09-17T17:49:35.829Z,59.70
2018-09-17T17:52:05.820Z,59.96
2018-09-17T17:54:34.530Z,60.41
2018-09-17T17:57:03.142Z,59.98
2018-09-17T17:59:33.815Z,60.67
2018-09-17T18:02:02.674Z,60.31
2018-09-17T18:04:47.539Z,60.57
2018-09-17T18:07:17.853Z,60.49
2018-09-17T18:09:46.682Z,61.66
2018-09-17T18:12:23.965Z,62.16
2018-09-17T18:14:54.204Z,61.23
2018-09-17T18:17:30.007Z,61.99
2018-09-17T18:22:52.545Z,63.14
2018-09-17T18:25:21.498Z,64.34
2018-09-17T18:35:12.441Z,67.19
2018-09-17T18:37:41.396Z,64.96
2018-09-17T18:40:11.415Z,65.24
2018-09-17T18:42:41.143Z,63.88
2018-09-17T18:45:09.895Z,65.57
2018-09-17T18:47:39.345Z,64.46
2018-09-17T18:50:19.769Z,64.73
2018-09-17T18:52:48.874Z,64.29
2018-09-17T18:55:17.827Z,64.93
2018-09-17T18:57:47.185Z,65.63
2018-09-17T19:00:17.383Z,64.84
2018-09-17T19:02:49.885Z,64.96
2018-09-17T19:05:20.075Z,66.10
2018-09-17T19:07:48.862Z,65.62
2018-09-17T19:10:19.403Z,65.72
2018-09-17T19:12:50.012Z,65.63
2018-09-17T19:15:24.659Z,66.72
2018-09-17T19:17:53.734Z,67.86
2018-09-17T19:20:23.352Z,67.72
2018-09-17T19:22:57.343Z,68.56
2018-09-17T19:25:27.311Z,68.50
2018-09-17T19:28:01.327Z,69.20
2018-09-17T19:30:30.373Z,69.80
2018-09-17T19:33:01.641Z,69.80
2018-09-17T19:35:31.883Z,70.57
2018-09-17T19:44:58.364Z,71.84
2018-09-17T20:15:30.820Z,71.13
2018-09-17T20:18:07.788Z,70.97
2018-09-17T20:24:00.549Z,71.13
2018-09-17T20:27:50.668Z,71.21
2018-09-17T20:32:41.763Z,72.25
2018-09-17T20:35:11.411Z,71.85
2018-09-17T20:37:40.285Z,72.39
2018-09-17T20:40:08.813Z,72.67
2018-09-17T20:42:37.590Z,72.93
2018-09-17T20:45:06.154Z,72.87
2018-09-17T20:47:34.751Z,73.27
2018-09-17T20:50:03.782Z,73.81
2018-09-17T20:52:32.582Z,73.48
2018-09-17T20:55:01.365Z,73.60
2018-09-17T20:57:29.906Z,74.17
2018-09-17T21:00:00.473Z,73.79
2018-09-17T21:02:30.034Z,73.80
2018-09-17T21:04:58.602Z,74.55
2018-09-17T21:07:27.322Z,74.69
2018-09-17T21:09:56.104Z,75.10
2018-09-17T21:12:32.227Z,76.08
2018-09-17T21:15:00.844Z,76.04
2018-09-17T21:17:29.376Z,75.65
2018-09-17T21:19:57.829Z,75.48
2018-09-17T21:22:26.549Z,76.07
2018-09-17T21:24:55.141Z,75.81
2018-09-17T21:27:23.648Z,75.66
2018-09-17T21:29:52.140Z,76.46
2018-09-17T21:32:22.233Z,75.04
2018-09-17T21:34:50.683Z,76.07
2018-09-17T21:37:19.247Z,76.35
2018-09-17T21:39:47.636Z,76.03
2018-09-17T21:42:16.042Z,76.06
2018-09-17T21:44:44.294Z,76.33
2018-09-17T21:47:12.274Z,76.35
2018-09-17T21:49:40.571Z,76.45
2018-09-17T21:52:08.593Z,76.27
2018-09-17T21:54:36.825Z,75.94
2018-09-17T21:57:04.980Z,75.77
2018-09-17T21:59:34.317Z,75.86
2018-09-17T22:02:02.596Z,76.03
2018-09-17T22:04:30.624Z,74.14
2018-09-17T22:06:58.702Z,74.35
2018-09-17T22:09:26.769Z,75.01
2018-09-17T22:11:55.007Z,75.79
2018-09-17T22:14:23.017Z,76.00
2018-09-17T22:16:51.022Z,76.03
2018-09-17T22:19:19.273Z,76.28
2018-09-17T22:21:47.237Z,77.07
2018-09-17T22:24:15.287Z,76.92
2018-09-17T22:26:43.244Z,78.13
2018-09-17T22:29:11.694Z,77.95
2018-09-17T22:31:40.052Z,78.34
2018-09-17T22:34:08.100Z,78.50
2018-09-17T22:36:36.239Z,77.86
2018-09-17T22:39:07.867Z,77.96
2018-09-17T22:41:35.966Z,77.10
2018-09-17T22:44:04.317Z,76.91
2018-09-17T22:46:32.400Z,77.14
2018-09-17T22:49:00.434Z,77.49
2018-09-17T22:51:28.397Z,77.50
2018-09-17T22:53:56.774Z,78.30
2018-09-17T22:56:24.815Z,78.80
2018-09-17T22:58:52.834Z,78.44
2018-09-17T23:01:20.941Z,78.87
2018-09-17T23:03:48.899Z,79.14
2018-09-17T23:06:16.888Z,79.25
2018-09-17T23:08:45.347Z,79.01
2018-09-17T23:11:13.378Z,78.46
2018-09-17T23:13:41.661Z,78.80
2018-09-17T23:16:10.760Z,78.57
2018-09-17T23:18:39.026Z,79.18
2018-09-17T23:21:07.281Z,78.58
2018-09-17T23:23:35.390Z,78.47
2018-09-17T23:26:03.469Z,78.78
2018-09-17T23:28:32.313Z,78.25
2018-09-17T23:31:00.488Z,78.47
2018-09-17T23:33:28.948Z,78.36
2018-09-17T23:36:00.468Z,79.15
2018-09-17T23:38:32.179Z,79.07
2018-09-17T23:41:00.404Z,79.43
2018-09-17T23:43:28.573Z,79.61
2018-09-17T23:45:56.891Z,79.00
2018-09-17T23:48:25.868Z,79.12
2018-09-17T23:50:54.080Z,79.06
2018-09-17T23:53:22.260Z,79.03
2018-09-17T23:55:50.332Z,78.16
2018-09-17T23:58:18.320Z,78.41
